Bonaire, Georgia
Current Conditions -  °F | °C
As of 10:58 AM on Sunday 21 Dec 2014 (Local Time) from KWRB Reporting Station
Overcast Overcast  
Wind Chill: 51°   Ceiling: 1100
Heat Index: 51°   Visibility: 10mi
Dew Point: 47°   Wind: 7mph
Humidity: 86%   Direction: NA
Pressure: 30.2"   Gusts: NA
Location:  32.54°N, 83.6°W
Report Text: KWRB 211558Z AUTO VRB06KT 10SM OVC011 11/08 A3020 RMK AO2 SLP229 T01070084
Loading
Personal Weather Stations






























Interactive Weather Map New forecast layout! Learn more

10-Day Weather Forecast

Advertisements
Track Severe Weather on mobile